Wetterdaten: Woche 03.09.18 - 09.09.18 (KW36)
Datum Zeit Temperatur Luftfeuchte Luftdruck Niederschlag Windrichtung Sonnenschein Solar Wind
03.09.2018 00:00 12,9 C 98 % 1016,5 hPa 0,0 l/m N 0,00 h 0 W/m 0,0 km/h (0 Bft)
03.09.2018 01:00 12,9 C 98 % 1015,5 hPa 0,0 l/m N 0,00 h 0 W/m 0,7 km/h (0 Bft)
03.09.2018 02:00 12,9 C 98 % 1015,1 hPa 0,0 l/m N 0,00 h 0 W/m 0,0 km/h (0 Bft)
03.09.2018 03:00 13,0 C 99 % 1015,3 hPa 0,0 l/m NO 0,00 h 0 W/m 2,4 km/h (1 Bft)
03.09.2018 04:00 13,1 C 99 % 1014,8 hPa 0,0 l/m N 0,00 h 0 W/m 0,5 km/h (0 Bft)
03.09.2018 05:00 13,1 C 99 % 1014,6 hPa 0,0 l/m NO 0,00 h 0 W/m 2,0 km/h (1 Bft)
03.09.2018 06:00 13,1 C 99 % 1014,4 hPa 0,0 l/m NO 0,00 h 0 W/m 0,5 km/h (0 Bft)
03.09.2018 07:00 13,1 C 99 % 1014,4 hPa 0,0 l/m N 0,00 h 18 W/m 0,1 km/h (0 Bft)
03.09.2018 08:00 13,4 C 99 % 1014,3 hPa 0,0 l/m NO 0,00 h 67 W/m 1,6 km/h (1 Bft)
03.09.2018 09:00 14,1 C 97 % 1014,3 hPa 0,0 l/m NO 0,00 h 119 W/m 2,4 km/h (1 Bft)
03.09.2018 10:00 15,3 C 92 % 1014,4 hPa 0,0 l/m N 0,00 h 243 W/m 0,0 km/h (0 Bft)
03.09.2018 11:00 16,2 C 87 % 1014,2 hPa 0,0 l/m NO 0,08 h 279 W/m 1,5 km/h (1 Bft)
03.09.2018 12:00 17,0 C 81 % 1014,0 hPa 0,0 l/m NO 0,00 h 300 W/m 2,0 km/h (1 Bft)
03.09.2018 13:00 18,2 C 76 % 1013,9 hPa 0,0 l/m NO 0,42 h 390 W/m 8,7 km/h (2 Bft)
03.09.2018 14:00 17,5 C 80 % 1013,7 hPa 0,0 l/m N 0,00 h 288 W/m 7,4 km/h (2 Bft)
03.09.2018 15:00 18,4 C 74 % 1013,5 hPa 0,0 l/m N 0,50 h 392 W/m 2,8 km/h (1 Bft)
03.09.2018 16:00 18,4 C 75 % 1013,2 hPa 0,0 l/m N 0,08 h 172 W/m 10,2 km/h (2 Bft)
03.09.2018 17:00 18,2 C 76 % 1013,3 hPa 0,0 l/m N-NO 0,33 h 203 W/m 11,3 km/h (2 Bft)
03.09.2018 18:00 17,1 C 81 % 1013,2 hPa 0,0 l/m N 0,00 h 57 W/m 4,3 km/h (1 Bft)
03.09.2018 19:00 16,1 C 86 % 1013,4 hPa 0,0 l/m N 0,00 h 11 W/m 0,0 km/h (0 Bft)
03.09.2018 20:00 14,3 C 93 % 1013,7 hPa 0,0 l/m N 0,00 h 0 W/m 0,0 km/h (0 Bft)
03.09.2018 21:00 13,4 C 95 % 1014,0 hPa 0,0 l/m N 0,00 h 0 W/m 0,0 km/h (0 Bft)
03.09.2018 22:00 12,9 C 97 % 1014,0 hPa 0,0 l/m N 0,00 h 0 W/m 0,0 km/h (0 Bft)
03.09.2018 23:00 12,4 C 97 % 1014,0 hPa 0,0 l/m N 0,00 h 0 W/m 0,0 km/h (0 Bft)
04.09.2018 00:00 11,5 C 98 % 1013,8 hPa 0,0 l/m N 0,00 h 0 W/m 0,0 km/h (0 Bft)
04.09.2018 01:00 10,9 C 98 % 1013,7 hPa 0,0 l/m N 0,00 h 0 W/m 0,0 km/h (0 Bft)
04.09.2018 02:00 10,5 C 98 % 1013,7 hPa 0,0 l/m N 0,00 h 0 W/m 0,0 km/h (0 Bft)
04.09.2018 03:00 10,0 C 98 % 1013,9 hPa 0,0 l/m N 0,00 h 0 W/m 0,0 km/h (0 Bft)
04.09.2018 04:00 9,5 C 98 % 1013,9 hPa 0,0 l/m N 0,00 h 0 W/m 0,0 km/h (0 Bft)
04.09.2018 05:00 8,9 C 99 % 1014,0 hPa 0,0 l/m N 0,00 h 0 W/m 0,0 km/h (0 Bft)
04.09.2018 06:00 8,8 C 99 % 1014,1 hPa 0,0 l/m N 0,00 h 6 W/m 0,0 km/h (0 Bft)
04.09.2018 07:00 8,7 C 99 % 1014,6 hPa 0,0 l/m N 0,00 h 33 W/m 0,0 km/h (0 Bft)
04.09.2018 08:00 9,0 C 99 % 1015,0 hPa 0,0 l/m N 0,00 h 62 W/m 0,0 km/h (0 Bft)
04.09.2018 09:00 10,7 C 100 % 1015,2 hPa 0,0 l/m N 0,17 h 191 W/m 0,1 km/h (0 Bft)
04.09.2018 10:00 13,4 C 100 % 1015,0 hPa 0,0 l/m N 0,50 h 426 W/m 2,7 km/h (1 Bft)
04.09.2018 11:00 17,2 C 90 % 1014,5 hPa 0,0 l/m N 0,92 h 518 W/m 4,4 km/h (1 Bft)
04.09.2018 12:00 19,3 C 75 % 1014,1 hPa 0,0 l/m N-NO 0,75 h 593 W/m 5,0 km/h (1 Bft)
04.09.2018 13:00 19,8 C 71 % 1013,8 hPa 0,0 l/m N-NO 0,08 h 172 W/m 4,9 km/h (1 Bft)
04.09.2018 14:00 18,5 C 79 % 1014,2 hPa 0,0 l/m O 0,00 h 205 W/m 13,6 km/h (3 Bft)
04.09.2018 15:00 18,5 C 81 % 1014,0 hPa 0,0 l/m O-NO 0,00 h 237 W/m 13,2 km/h (3 Bft)
04.09.2018 16:00 18,8 C 79 % 1014,0 hPa 0,0 l/m O-NO 0,08 h 207 W/m 5,2 km/h (1 Bft)
04.09.2018 17:00 20,4 C 73 % 1013,8 hPa 0,0 l/m O-NO 0,83 h 350 W/m 4,5 km/h (1 Bft)
04.09.2018 18:00 20,5 C 71 % 1013,8 hPa 0,0 l/m O-NO 0,92 h 156 W/m 7,1 km/h (2 Bft)
04.09.2018 19:00 19,0 C 78 % 1014,0 hPa 0,0 l/m N 0,08 h 28 W/m 1,1 km/h (0 Bft)
04.09.2018 20:00 16,0 C 89 % 1014,6 hPa 0,0 l/m N 0,00 h 0 W/m 0,0 km/h (0 Bft)
04.09.2018 21:00 14,7 C 93 % 1015,1 hPa 0,0 l/m N 0,00 h 0 W/m 0,0 km/h (0 Bft)
04.09.2018 22:00 13,9 C 95 % 1015,3 hPa 0,0 l/m N 0,00 h 0 W/m 0,0 km/h (0 Bft)
04.09.2018 23:00 13,3 C 96 % 1015,3 hPa 0,0 l/m N 0,00 h 0 W/m 0,1 km/h (0 Bft)
05.09.2018 00:00 13,0 C 97 % 1015,3 hPa 0,0 l/m N 0,00 h 0 W/m 0,0 km/h (0 Bft)
05.09.2018 01:00 12,4 C 97 % 1015,2 hPa 0,0 l/m N 0,00 h 0 W/m 0,0 km/h (0 Bft)
05.09.2018 02:00 11,8 C 98 % 1015,0 hPa 0,0 l/m N 0,00 h 0 W/m 0,0 km/h (0 Bft)
05.09.2018 03:00 11,6 C 98 % 1014,7 hPa 0,0 l/m N 0,00 h 0 W/m 0,4 km/h (0 Bft)
05.09.2018 04:00 11,5 C 98 % 1014,5 hPa 0,0 l/m N 0,00 h 0 W/m 0,3 km/h (0 Bft)
05.09.2018 05:00 11,1 C 98 % 1014,6 hPa 0,0 l/m O-NO 0,00 h 0 W/m 2,5 km/h (1 Bft)
05.09.2018 06:00 11,3 C 99 % 1014,9 hPa 0,2 l/m NO 0,08 h 7 W/m 6,0 km/h (2 Bft)
05.09.2018 07:00 10,6 C 99 % 1015,1 hPa 0,0 l/m N 0,00 h 45 W/m 0,4 km/h (0 Bft)
05.09.2018 08:00 11,8 C 99 % 1015,3 hPa 0,0 l/m N 0,50 h 172 W/m 0,0 km/h (0 Bft)
05.09.2018 09:00 14,3 C 97 % 1015,3 hPa 0,0 l/m N 0,92 h 350 W/m 1,1 km/h (0 Bft)
05.09.2018 10:00 17,0 C 87 % 1015,2 hPa 0,0 l/m NO 0,92 h 494 W/m 1,7 km/h (1 Bft)
05.09.2018 11:00 19,5 C 77 % 1015,1 hPa 0,0 l/m NO 1,00 h 653 W/m 4,8 km/h (1 Bft)
05.09.2018 12:00 22,0 C 65 % 1014,4 hPa 0,0 l/m NO 1,00 h 728 W/m 6,6 km/h (2 Bft)
05.09.2018 13:00 23,7 C 59 % 1014,0 hPa 0,0 l/m O-SO 1,00 h 742 W/m 10,3 km/h (2 Bft)
05.09.2018 14:00 24,9 C 54 % 1013,7 hPa 0,0 l/m O 1,00 h 713 W/m 12,4 km/h (3 Bft)
05.09.2018 15:00 25,2 C 53 % 1013,2 hPa 0,0 l/m O-SO 1,00 h 634 W/m 13,4 km/h (3 Bft)
05.09.2018 16:00 25,5 C 53 % 1012,8 hPa 0,0 l/m O-SO 0,92 h 513 W/m 10,9 km/h (2 Bft)
05.09.2018 17:00 24,8 C 54 % 1012,7 hPa 0,0 l/m O-SO 0,58 h 233 W/m 9,5 km/h (2 Bft)
05.09.2018 18:00 24,2 C 56 % 1012,5 hPa 0,0 l/m O 0,75 h 153 W/m 8,3 km/h (2 Bft)
05.09.2018 19:00 22,5 C 63 % 1012,3 hPa 0,0 l/m O 0,00 h 26 W/m 4,1 km/h (1 Bft)
05.09.2018 20:00 19,0 C 77 % 1012,5 hPa 0,0 l/m N 0,00 h 0 W/m 0,0 km/h (0 Bft)
05.09.2018 21:00 17,0 C 85 % 1012,5 hPa 0,0 l/m N 0,00 h 0 W/m 0,1 km/h (0 Bft)
05.09.2018 22:00 16,1 C 88 % 1012,5 hPa 0,0 l/m N 0,00 h 0 W/m 0,0 km/h (0 Bft)
05.09.2018 23:00 15,5 C 91 % 1012,2 hPa 0,0 l/m N 0,00 h 0 W/m 0,7 km/h (0 Bft)
06.09.2018 00:00 15,0 C 93 % 1012,2 hPa 0,0 l/m N 0,00 h 0 W/m 0,0 km/h (0 Bft)
06.09.2018 01:00 14,7 C 95 % 1012,1 hPa 0,0 l/m O 0,00 h 0 W/m 3,9 km/h (1 Bft)
06.09.2018 02:00 14,3 C 94 % 1011,8 hPa 0,0 l/m N 0,00 h 0 W/m 0,3 km/h (0 Bft)
06.09.2018 03:00 13,8 C 95 % 1011,5 hPa 0,0 l/m N 0,00 h 0 W/m 0,0 km/h (0 Bft)
06.09.2018 04:00 13,0 C 96 % 1011,2 hPa 0,0 l/m N 0,00 h 0 W/m 0,0 km/h (0 Bft)
06.09.2018 05:00 12,5 C 97 % 1010,8 hPa 0,0 l/m N 0,00 h 0 W/m 0,0 km/h (0 Bft)
06.09.2018 06:00 12,0 C 97 % 1010,7 hPa 0,0 l/m N 0,00 h 9 W/m 0,0 km/h (0 Bft)
06.09.2018 07:00 12,2 C 98 % 1010,7 hPa 0,0 l/m N 0,33 h 40 W/m 0,0 km/h (0 Bft)
06.09.2018 08:00 13,0 C 99 % 1010,7 hPa 0,0 l/m N 0,42 h 158 W/m 0,1 km/h (0 Bft)
06.09.2018 09:00 15,2 C 96 % 1010,6 hPa 0,0 l/m N 0,75 h 325 W/m 0,0 km/h (0 Bft)
06.09.2018 10:00 18,4 C 83 % 1010,3 hPa 0,0 l/m N 0,92 h 486 W/m 0,0 km/h (0 Bft)
06.09.2018 11:00 21,4 C 73 % 1009,8 hPa 0,0 l/m N 1,00 h 618 W/m 0,0 km/h (0 Bft)
06.09.2018 12:00 23,7 C 64 % 1009,2 hPa 0,0 l/m O 0,92 h 748 W/m 4,2 km/h (1 Bft)
06.09.2018 13:00 24,7 C 56 % 1008,6 hPa 0,0 l/m S-SO 0,50 h 571 W/m 10,3 km/h (2 Bft)
06.09.2018 14:00 23,6 C 61 % 1008,3 hPa 9,4 l/m N-NO 0,25 h 311 W/m 21,2 km/h (4 Bft)
06.09.2018 15:00 18,9 C 83 % 1008,5 hPa 0,0 l/m NO 0,58 h 423 W/m 9,4 km/h (2 Bft)
06.09.2018 16:00 19,6 C 86 % 1008,0 hPa 0,6 l/m NO 0,25 h 162 W/m 1,9 km/h (1 Bft)
06.09.2018 17:00 20,1 C 84 % 1007,5 hPa 0,0 l/m NO 0,67 h 236 W/m 2,3 km/h (1 Bft)
06.09.2018 18:00 19,9 C 87 % 1007,3 hPa 0,0 l/m N 0,00 h 71 W/m 0,0 km/h (0 Bft)
06.09.2018 19:00 18,8 C 94 % 1007,5 hPa 0,0 l/m N-NW 0,00 h 15 W/m 0,3 km/h (0 Bft)
06.09.2018 20:00 18,0 C 86 % 1008,3 hPa 0,2 l/m NW 0,00 h 0 W/m 4,8 km/h (1 Bft)
06.09.2018 21:00 16,5 C 92 % 1008,7 hPa 0,0 l/m NW 0,00 h 0 W/m 3,2 km/h (1 Bft)
06.09.2018 22:00 16,4 C 92 % 1009,0 hPa 0,0 l/m N-NW 0,00 h 0 W/m 2,8 km/h (1 Bft)
06.09.2018 23:00 16,2 C 93 % 1009,3 hPa 0,0 l/m NW 0,00 h 0 W/m 1,9 km/h (1 Bft)
07.09.2018 00:00 16,2 C 95 % 1009,6 hPa 0,2 l/m N 0,00 h 0 W/m 0,5 km/h (0 Bft)
07.09.2018 01:00 16,1 C 97 % 1009,6 hPa 0,0 l/m N 0,00 h 0 W/m 0,3 km/h (0 Bft)
07.09.2018 02:00 15,9 C 97 % 1009,5 hPa 0,0 l/m N 0,00 h 0 W/m 0,9 km/h (0 Bft)
07.09.2018 03:00 15,5 C 98 % 1009,8 hPa 0,0 l/m N 0,00 h 0 W/m 0,1 km/h (0 Bft)
07.09.2018 04:00 15,1 C 97 % 1010,0 hPa 0,0 l/m NW 0,00 h 0 W/m 3,6 km/h (1 Bft)
07.09.2018 05:00 14,6 C 95 % 1010,0 hPa 0,0 l/m NW 0,00 h 0 W/m 3,7 km/h (1 Bft)
07.09.2018 06:00 14,3 C 95 % 1010,3 hPa 0,0 l/m NW 0,00 h 5 W/m 2,4 km/h (1 Bft)
07.09.2018 07:00 14,0 C 96 % 1010,7 hPa 0,0 l/m N 0,00 h 40 W/m 0,3 km/h (0 Bft)
07.09.2018 08:00 14,7 C 96 % 1011,0 hPa 0,0 l/m NW 0,25 h 135 W/m 1,2 km/h (1 Bft)
07.09.2018 09:00 16,1 C 93 % 1011,4 hPa 0,0 l/m W-NW 0,17 h 207 W/m 8,7 km/h (2 Bft)
07.09.2018 10:00 17,4 C 84 % 1011,8 hPa 0,0 l/m W 0,58 h 375 W/m 12,5 km/h (3 Bft)
07.09.2018 11:00 18,4 C 78 % 1012,2 hPa 0,0 l/m W 0,42 h 445 W/m 13,0 km/h (3 Bft)
07.09.2018 12:00 19,4 C 72 % 1012,1 hPa 0,0 l/m W 0,00 h 250 W/m 10,2 km/h (2 Bft)
07.09.2018 13:00 19,6 C 70 % 1012,3 hPa 0,0 l/m W 0,17 h 313 W/m 8,2 km/h (2 Bft)
07.09.2018 14:00 19,5 C 68 % 1012,5 hPa 0,0 l/m W 0,00 h 204 W/m 15,6 km/h (3 Bft)
07.09.2018 15:00 18,6 C 76 % 1012,5 hPa 0,0 l/m W-SW 0,25 h 305 W/m 8,3 km/h (2 Bft)
07.09.2018 16:00 20,4 C 67 % 1012,5 hPa 0,0 l/m W-SW 0,25 h 258 W/m 8,3 km/h (2 Bft)
07.09.2018 17:00 20,3 C 64 % 1012,6 hPa 0,0 l/m W-SW 0,00 h 134 W/m 6,3 km/h (2 Bft)
07.09.2018 18:00 20,5 C 59 % 1012,9 hPa 0,0 l/m NW 0,50 h 130 W/m 11,0 km/h (2 Bft)
07.09.2018 19:00 18,6 C 68 % 1013,6 hPa 0,0 l/m N-NW 0,17 h 22 W/m 10,3 km/h (2 Bft)
07.09.2018 20:00 17,4 C 72 % 1014,6 hPa 0,0 l/m N-NW 0,00 h 0 W/m 5,6 km/h (1 Bft)
07.09.2018 21:00 16,0 C 80 % 1015,2 hPa 0,0 l/m N 0,00 h 0 W/m 0,3 km/h (0 Bft)
07.09.2018 22:00 14,5 C 86 % 1015,8 hPa 0,0 l/m N 0,00 h 0 W/m 0,0 km/h (0 Bft)
07.09.2018 23:00 14,1 C 87 % 1016,4 hPa 0,0 l/m N 0,00 h 0 W/m 1,1 km/h (0 Bft)
08.09.2018 00:00 13,5 C 87 % 1016,9 hPa 0,0 l/m N 0,00 h 0 W/m 0,0 km/h (0 Bft)
08.09.2018 01:00 13,1 C 90 % 1017,2 hPa 0,0 l/m N 0,00 h 0 W/m 0,0 km/h (0 Bft)
08.09.2018 02:00 12,6 C 90 % 1017,3 hPa 0,0 l/m N 0,00 h 0 W/m 0,0 km/h (0 Bft)
08.09.2018 03:00 11,6 C 93 % 1017,8 hPa 0,0 l/m N 0,00 h 0 W/m 0,0 km/h (0 Bft)
08.09.2018 04:00 11,1 C 94 % 1017,9 hPa 0,0 l/m N 0,00 h 0 W/m 0,0 km/h (0 Bft)
08.09.2018 05:00 11,2 C 95 % 1018,0 hPa 0,0 l/m N 0,00 h 0 W/m 0,0 km/h (0 Bft)
08.09.2018 06:00 11,3 C 95 % 1018,0 hPa 0,0 l/m N 0,00 h 7 W/m 0,0 km/h (0 Bft)
08.09.2018 07:00 11,1 C 95 % 1018,3 hPa 0,0 l/m N 0,08 h 43 W/m 0,0 km/h (0 Bft)
08.09.2018 08:00 12,2 C 94 % 1018,7 hPa 0,0 l/m N 0,08 h 112 W/m 0,0 km/h (0 Bft)
08.09.2018 09:00 14,3 C 87 % 1019,0 hPa 0,0 l/m N-NW 0,42 h 229 W/m 4,8 km/h (1 Bft)
08.09.2018 10:00 16,2 C 78 % 1019,2 hPa 0,0 l/m N-NO 0,92 h 483 W/m 3,9 km/h (1 Bft)
08.09.2018 11:00 18,4 C 69 % 1018,9 hPa 0,0 l/m O 1,00 h 679 W/m 6,6 km/h (2 Bft)
08.09.2018 12:00 19,5 C 64 % 1018,7 hPa 0,0 l/m N 0,67 h 651 W/m 2,8 km/h (1 Bft)
08.09.2018 13:00 20,4 C 61 % 1018,2 hPa 0,0 l/m O-SO 0,58 h 512 W/m 2,8 km/h (1 Bft)
08.09.2018 14:00 21,9 C 54 % 1017,7 hPa 0,0 l/m S-SO 1,00 h 760 W/m 4,9 km/h (1 Bft)
08.09.2018 15:00 22,8 C 52 % 1017,4 hPa 0,0 l/m O-SO 1,00 h 652 W/m 7,5 km/h (2 Bft)
08.09.2018 16:00 22,9 C 51 % 1017,0 hPa 0,0 l/m O-SO 1,00 h 493 W/m 7,2 km/h (2 Bft)
08.09.2018 17:00 22,8 C 51 % 1017,0 hPa 0,0 l/m O 1,00 h 332 W/m 8,1 km/h (2 Bft)
08.09.2018 18:00 22,0 C 53 % 1017,2 hPa 0,0 l/m O-NO 0,75 h 143 W/m 4,3 km/h (1 Bft)
08.09.2018 19:00 19,6 C 63 % 1017,3 hPa 0,0 l/m N 0,00 h 20 W/m 0,3 km/h (0 Bft)
08.09.2018 20:00 16,0 C 79 % 1017,7 hPa 0,0 l/m N 0,00 h 0 W/m 0,0 km/h (0 Bft)
08.09.2018 21:00 14,6 C 84 % 1018,0 hPa 0,0 l/m N 0,00 h 0 W/m 0,0 km/h (0 Bft)
08.09.2018 22:00 13,5 C 89 % 1018,0 hPa 0,0 l/m N 0,00 h 0 W/m 0,0 km/h (0 Bft)
08.09.2018 23:00 12,7 C 92 % 1018,3 hPa 0,0 l/m N 0,00 h 0 W/m 0,0 km/h (0 Bft)
09.09.2018 00:00 12,0 C 93 % 1018,2 hPa 0,0 l/m N 0,00 h 0 W/m 0,0 km/h (0 Bft)
09.09.2018 01:00 10,9 C 94 % 1018,4 hPa 0,0 l/m N 0,00 h 0 W/m 0,0 km/h (0 Bft)
09.09.2018 02:00 10,3 C 96 % 1018,8 hPa 0,0 l/m N 0,00 h 0 W/m 0,0 km/h (0 Bft)
09.09.2018 03:00 9,9 C 96 % 1018,9 hPa 0,0 l/m N 0,00 h 0 W/m 0,0 km/h (0 Bft)
09.09.2018 04:00 9,4 C 97 % 1019,0 hPa 0,0 l/m N 0,00 h 0 W/m 0,0 km/h (0 Bft)
09.09.2018 05:00 9,0 C 97 % 1019,2 hPa 0,0 l/m N 0,00 h 0 W/m 0,0 km/h (0 Bft)
09.09.2018 06:00 8,5 C 97 % 1019,4 hPa 0,0 l/m N 0,00 h 7 W/m 0,0 km/h (0 Bft)
09.09.2018 07:00 8,4 C 97 % 1019,8 hPa 0,0 l/m N 0,58 h 61 W/m 0,0 km/h (0 Bft)
09.09.2018 08:00 10,7 C 96 % 1020,0 hPa 0,0 l/m N 0,75 h 170 W/m 0,0 km/h (0 Bft)
09.09.2018 09:00 14,0 C 90 % 1020,2 hPa 0,0 l/m N 1,00 h 337 W/m 0,0 km/h (0 Bft)
09.09.2018 10:00 17,1 C 85 % 1020,3 hPa 0,0 l/m O-NO 1,00 h 540 W/m 2,0 km/h (1 Bft)
09.09.2018 11:00 20,3 C 68 % 1020,1 hPa 0,0 l/m O-NO 1,00 h 660 W/m 3,5 km/h (1 Bft)
09.09.2018 12:00 22,5 C 57 % 1019,7 hPa 0,0 l/m O-NO 1,00 h 767 W/m 7,2 km/h (2 Bft)
09.09.2018 13:00 24,2 C 52 % 1019,3 hPa 0,0 l/m S-SW 1,00 h 789 W/m 9,1 km/h (2 Bft)
09.09.2018 14:00 24,2 C 52 % 1019,0 hPa 0,0 l/m SO 0,33 h 421 W/m 5,5 km/h (1 Bft)
09.09.2018 15:00 25,1 C 50 % 1018,7 hPa 0,0 l/m O-SO 0,92 h 561 W/m 6,0 km/h (2 Bft)
09.09.2018 16:00 25,8 C 46 % 1018,5 hPa 0,0 l/m O-NO 1,00 h 537 W/m 7,1 km/h (2 Bft)
09.09.2018 17:00 25,6 C 47 % 1018,3 hPa 0,0 l/m O-NO 1,00 h 340 W/m 10,2 km/h (2 Bft)
09.09.2018 18:00 24,7 C 48 % 1018,3 hPa 0,0 l/m O-NO 0,83 h 140 W/m 2,5 km/h (1 Bft)
09.09.2018 19:00 21,4 C 63 % 1018,4 hPa 0,0 l/m N 0,08 h 19 W/m 0,0 km/h (0 Bft)
09.09.2018 20:00 18,6 C 72 % 1019,2 hPa 0,0 l/m N 0,00 h 0 W/m 0,0 km/h (0 Bft)
09.09.2018 21:00 16,5 C 81 % 1019,4 hPa 0,0 l/m N 0,00 h 0 W/m 0,0 km/h (0 Bft)
09.09.2018 22:00 15,1 C 85 % 1019,6 hPa 0,0 l/m N 0,00 h 0 W/m 0,0 km/h (0 Bft)
09.09.2018 23:00 14,4 C 88 % 1019,8 hPa 0,0 l/m N 0,00 h 0 W/m 0,7 km/h (0 Bft)
Min-Datum _ 09.09.18 09.09.18 06.09.18 - - - - 03.09.18
_ Min-Zeit 06:55 16:55 18:40 - - - - 00:00
Minimum _ 8,3 C 44 % 1007,2 hPa - - - - 0,0 km/h (0 Bft)
Max-Datum _ 06.09.18 04.09.18 09.09.18 06.09.18 - 03.09.18 04.09.18 06.09.18
_ Max-Zeit 14:25 08:50 09:50 14:45 - 11:45 12:55 14:35
Maximum _ 26,0 C 100 % 1020,4 hPa 9,4 l/m - 0,08 h 1060 W/m 43,5 km/h
S (6 Bft)
Durchschnitt _ 16,2 C 84 % 1014,5 hPa #10,6 l/m O-NO #43:45 h 295 W/m 3,1 km/h (1 Bft)